createdAt,value
2018-11-14T00:04:55.053Z,22.10
2018-11-14T00:09:58.371Z,22.10
2018-11-14T00:15:01.759Z,22.10
2018-11-14T00:20:06.999Z,22.07
2018-11-14T00:25:10.328Z,22.06
2018-11-14T00:30:17.529Z,22.08
2018-11-14T00:35:20.749Z,22.09
2018-11-14T00:40:24.027Z,22.06
2018-11-14T00:45:27.377Z,22.08
2018-11-14T00:50:30.645Z,22.08
2018-11-14T00:55:33.944Z,22.05
2018-11-14T01:00:37.232Z,22.05
2018-11-14T01:05:40.492Z,22.07
2018-11-14T01:10:43.761Z,22.05
2018-11-14T01:15:47.029Z,22.03
2018-11-14T01:20:50.295Z,22.03
2018-11-14T01:25:53.564Z,22.05
2018-11-14T01:30:56.829Z,22.04
2018-11-14T01:36:00.128Z,22.05
2018-11-14T01:41:03.447Z,22.02
2018-11-14T01:46:06.749Z,22.01
2018-11-14T01:51:10.032Z,22.05
2018-11-14T01:56:13.301Z,22.01
2018-11-14T02:01:16.564Z,22.00
2018-11-14T02:06:19.856Z,22.02
2018-11-14T02:11:23.286Z,22.02
2018-11-14T02:16:26.560Z,22.00
2018-11-14T02:21:29.904Z,22.00
2018-11-14T02:26:33.308Z,22.02
2018-11-14T02:31:36.585Z,21.97
2018-11-14T02:36:39.869Z,22.02
2018-11-14T02:41:43.253Z,22.02
2018-11-14T02:46:46.565Z,21.99
2018-11-14T02:51:49.820Z,21.98
2018-11-14T02:56:53.093Z,21.99
2018-11-14T03:01:56.405Z,21.98
2018-11-14T03:06:59.677Z,21.97
2018-11-14T03:12:02.941Z,21.97
2018-11-14T03:17:06.280Z,21.94
2018-11-14T03:22:09.553Z,21.98
2018-11-14T03:27:12.842Z,21.89
2018-11-14T03:32:16.110Z,21.97
2018-11-14T03:37:19.378Z,22.00
2018-11-14T03:42:22.648Z,21.98
2018-11-14T03:47:25.897Z,21.98
2018-11-14T03:52:29.165Z,21.92
2018-11-14T03:57:32.432Z,21.95
2018-11-14T04:02:35.685Z,21.97
2018-11-14T04:07:39.645Z,21.94
2018-11-14T04:12:43.149Z,21.97
2018-11-14T04:17:46.422Z,21.97
2018-11-14T04:22:49.681Z,21.98
2018-11-14T04:27:52.920Z,21.95
2018-11-14T04:32:56.164Z,21.92
2018-11-14T04:37:59.429Z,21.96
2018-11-14T04:43:02.669Z,21.91
2018-11-14T04:48:06.328Z,21.93
2018-11-14T04:53:09.484Z,21.84
2018-11-14T04:58:12.720Z,21.91
2018-11-14T05:03:15.957Z,21.90
2018-11-14T05:08:19.191Z,22.00
2018-11-14T05:13:22.601Z,21.91
2018-11-14T05:18:25.980Z,21.90
2018-11-14T05:23:29.309Z,21.92
2018-11-14T05:28:32.721Z,21.93
2018-11-14T05:33:35.973Z,21.89
2018-11-14T05:38:39.447Z,21.90
2018-11-14T05:43:42.772Z,21.91
2018-11-14T05:48:46.088Z,21.89
2018-11-14T05:53:49.331Z,21.88
2018-11-14T05:58:53.441Z,21.87
2018-11-14T06:03:57.304Z,21.88
2018-11-14T06:09:00.575Z,21.89
2018-11-14T06:14:03.877Z,21.87
2018-11-14T06:19:07.350Z,21.88
2018-11-14T06:24:10.646Z,21.88
2018-11-14T06:29:13.916Z,21.85
2018-11-14T06:34:17.194Z,21.87
2018-11-14T06:39:20.464Z,21.88
2018-11-14T06:44:23.760Z,21.86
2018-11-14T06:49:27.060Z,21.82
2018-11-14T06:54:30.331Z,21.87
2018-11-14T06:59:33.792Z,21.89
2018-11-14T07:04:37.156Z,21.92
2018-11-14T07:09:40.848Z,21.87
2018-11-14T07:14:44.109Z,21.90
2018-11-14T07:19:47.665Z,21.88
2018-11-14T07:24:51.024Z,21.89
2018-11-14T07:29:54.376Z,21.87
2018-11-14T07:34:57.789Z,21.88
2018-11-14T07:40:01.179Z,21.87
2018-11-14T07:45:04.916Z,21.82
2018-11-14T07:50:11.128Z,21.87
2018-11-14T07:55:14.960Z,21.81
2018-11-14T08:00:18.243Z,21.78
2018-11-14T08:05:21.613Z,21.64
2018-11-14T08:10:25.023Z,21.36
2018-11-14T08:15:28.316Z,21.25
2018-11-14T08:20:31.615Z,21.14
2018-11-14T08:25:35.268Z,21.10
2018-11-14T08:30:38.721Z,21.08
2018-11-14T08:35:42.220Z,21.27
2018-11-14T08:40:45.520Z,21.41
2018-11-14T08:45:48.788Z,21.44
2018-11-14T08:50:52.044Z,21.49
2018-11-14T08:55:55.350Z,21.49
2018-11-14T09:00:58.760Z,21.41
2018-11-14T09:06:02.060Z,21.54
2018-11-14T09:11:05.918Z,21.60
2018-11-14T09:16:09.152Z,21.54
2018-11-14T09:21:12.420Z,21.63
2018-11-14T09:26:15.729Z,21.67
2018-11-14T09:31:18.985Z,21.67
2018-11-14T09:36:22.249Z,21.68
2018-11-14T09:41:25.603Z,21.71
2018-11-14T09:46:28.837Z,21.66
2018-11-14T09:51:32.121Z,21.63
2018-11-14T09:56:35.403Z,21.64
2018-11-14T10:01:38.720Z,21.69
2018-11-14T10:06:42.503Z,21.78
2018-11-14T10:11:45.768Z,21.78
2018-11-14T10:16:49.108Z,21.79
2018-11-14T10:21:52.368Z,21.78
2018-11-14T10:26:55.636Z,21.77
2018-11-14T10:31:58.900Z,21.78
2018-11-14T10:37:02.173Z,21.78
2018-11-14T10:42:05.476Z,21.82
2018-11-14T10:47:08.756Z,21.83
2018-11-14T10:52:12.017Z,21.81
2018-11-14T10:57:15.276Z,21.81
2018-11-14T11:02:23.868Z,21.82
2018-11-14T11:07:32.492Z,21.86
2018-11-14T11:12:41.160Z,21.89
2018-11-14T11:17:49.728Z,21.88
2018-11-14T11:22:53.253Z,21.86
2018-11-14T11:27:56.521Z,21.88
2018-11-14T11:32:59.802Z,21.93
2018-11-14T11:38:03.219Z,21.89
2018-11-14T11:43:06.726Z,21.92
2018-11-14T11:48:10.057Z,22.01
2018-11-14T11:53:13.376Z,22.05
2018-11-14T11:58:16.685Z,22.07
2018-11-14T12:03:20.004Z,22.05
2018-11-14T12:08:23.312Z,22.10
2018-11-14T12:13:26.623Z,22.09
2018-11-14T12:18:29.928Z,22.03
2018-11-14T12:23:33.451Z,22.00
2018-11-14T12:28:36.702Z,21.98
2018-11-14T12:33:40.122Z,22.11
2018-11-14T12:38:43.680Z,22.19
2018-11-14T12:43:46.924Z,22.08
2018-11-14T12:48:50.236Z,22.05
2018-11-14T12:53:53.546Z,22.13
2018-11-14T12:58:56.803Z,22.17
2018-11-14T13:04:00.090Z,22.26
2018-11-14T13:09:04.145Z,22.28
2018-11-14T13:14:07.413Z,22.25
2018-11-14T13:19:10.708Z,22.29
2018-11-14T13:24:13.983Z,22.32
2018-11-14T13:29:17.864Z,22.35
2018-11-14T13:34:22.058Z,22.36
2018-11-14T13:39:25.380Z,22.44
2018-11-14T13:44:28.685Z,22.38
2018-11-14T13:49:32.604Z,22.30
2018-11-14T13:54:35.666Z,22.24
2018-11-14T13:59:38.985Z,22.25
2018-11-14T14:04:42.253Z,22.31
2018-11-14T14:09:45.521Z,22.31
2018-11-14T14:14:49.952Z,22.33
2018-11-14T14:19:53.219Z,22.29
2018-11-14T14:24:56.489Z,22.33
2018-11-14T14:29:59.773Z,22.41
2018-11-14T14:35:07.009Z,22.51
2018-11-14T14:40:12.585Z,22.49
2018-11-14T14:45:17.428Z,22.56
2018-11-14T14:50:21.054Z,22.58
2018-11-14T14:55:25.316Z,22.59
2018-11-14T15:00:28.778Z,22.74
2018-11-14T15:05:32.083Z,22.72
2018-11-14T15:10:35.596Z,22.73
2018-11-14T15:15:38.936Z,22.77
2018-11-14T15:20:42.198Z,22.68
2018-11-14T15:25:45.483Z,22.75
2018-11-14T15:30:48.781Z,22.83
2018-11-14T15:35:52.181Z,22.84
2018-11-14T15:40:55.445Z,22.85
2018-11-14T15:45:58.688Z,22.88
2018-11-14T15:51:02.101Z,22.86
2018-11-14T15:56:05.408Z,22.86
2018-11-14T16:01:08.782Z,22.81
2018-11-14T16:06:12.021Z,22.85
2018-11-14T16:11:15.265Z,22.81
2018-11-14T16:16:18.694Z,22.84
2018-11-14T16:21:23.488Z,22.78
2018-11-14T16:26:27.009Z,22.80
2018-11-14T16:31:30.488Z,22.88
2018-11-14T16:36:34.233Z,22.87
2018-11-14T16:41:37.469Z,22.89
2018-11-14T16:46:40.774Z,22.64
2018-11-14T16:51:44.101Z,22.67
2018-11-14T16:56:47.581Z,22.71
2018-11-14T17:01:50.937Z,22.66
2018-11-14T17:06:54.201Z,22.69
2018-11-14T17:11:57.478Z,22.72
2018-11-14T17:17:01.983Z,22.75
2018-11-14T17:22:05.785Z,22.82
2018-11-14T17:27:09.024Z,22.70
2018-11-14T17:32:12.276Z,22.74
2018-11-14T17:37:15.530Z,22.72
2018-11-14T17:42:18.905Z,22.74
2018-11-14T17:47:22.145Z,22.74
2018-11-14T17:52:25.389Z,22.78
2018-11-14T17:57:28.628Z,22.67
2018-11-14T18:02:31.865Z,22.59
2018-11-14T18:07:35.180Z,22.64
2018-11-14T18:12:38.530Z,22.57
2018-11-14T18:17:42.229Z,22.46
2018-11-14T18:22:46.172Z,22.56
2018-11-14T18:27:49.505Z,22.57
2018-11-14T18:32:53.388Z,22.57
2018-11-14T18:37:57.674Z,22.63
2018-11-14T18:43:01.060Z,22.66
2018-11-14T18:48:05.286Z,22.64
2018-11-14T18:53:08.948Z,22.65
2018-11-14T18:58:12.626Z,22.64
2018-11-14T19:03:16.643Z,22.67
2018-11-14T19:08:20.392Z,22.67
2018-11-14T19:13:23.710Z,22.61
2018-11-14T19:18:26.995Z,22.69
2018-11-14T19:23:30.527Z,22.68
2018-11-14T19:28:33.816Z,22.68
2018-11-14T19:33:37.069Z,22.66
2018-11-14T19:38:40.320Z,22.66
2018-11-14T19:43:43.573Z,22.51
2018-11-14T19:48:47.048Z,22.54
2018-11-14T19:53:50.464Z,22.52
2018-11-14T19:58:53.704Z,22.53
2018-11-14T20:03:56.945Z,22.50
2018-11-14T20:09:00.196Z,22.48
2018-11-14T20:14:03.616Z,22.50
2018-11-14T20:19:07.552Z,22.48
2018-11-14T20:24:10.801Z,22.45
2018-11-14T20:29:14.037Z,22.41
2018-11-14T20:34:17.525Z,22.42
2018-11-14T20:39:20.772Z,22.37
2018-11-14T20:44:24.065Z,22.39
2018-11-14T20:49:27.306Z,22.39
2018-11-14T20:54:30.701Z,22.47
2018-11-14T20:59:33.961Z,22.43
2018-11-14T21:04:37.206Z,22.34
2018-11-14T21:09:41.051Z,22.38
2018-11-14T21:14:44.281Z,22.35
2018-11-14T21:19:47.528Z,22.36
2018-11-14T21:24:50.925Z,22.35
2018-11-14T21:29:54.304Z,22.34
2018-11-14T21:34:57.744Z,22.36
2018-11-14T21:40:01.163Z,22.31
2018-11-14T21:45:04.538Z,22.29
2018-11-14T21:50:08.048Z,22.32
2018-11-14T21:55:12.384Z,22.31
2018-11-14T22:00:18.269Z,22.33
2018-11-14T22:05:21.606Z,22.33
2018-11-14T22:10:25.624Z,22.31
2018-11-14T22:15:29.745Z,22.31
2018-11-14T22:20:33.126Z,22.31
2018-11-14T22:25:36.393Z,22.29
2018-11-14T22:30:39.680Z,22.29
2018-11-14T22:35:42.972Z,22.29
2018-11-14T22:40:46.241Z,22.26
2018-11-14T22:45:49.580Z,22.26
2018-11-14T22:50:52.845Z,22.26
2018-11-14T22:55:56.347Z,22.27
2018-11-14T23:01:00.537Z,22.27
2018-11-14T23:06:03.830Z,22.26
2018-11-14T23:11:07.408Z,22.24
2018-11-14T23:16:10.723Z,22.23
2018-11-14T23:21:14.018Z,22.23
2018-11-14T23:26:17.365Z,22.20
2018-11-14T23:31:21.159Z,22.21
2018-11-14T23:36:24.544Z,22.22
2018-11-14T23:41:27.810Z,22.19
2018-11-14T23:46:31.117Z,22.16
2018-11-14T23:51:34.721Z,22.19
2018-11-14T23:56:37.987Z,22.17
